Time;durP1;ratioP1;P1;durP2;ratioP2;P2;SDS_P1;SDS_P2;PMS_P1;PMS_P2;Temp;Humidity;BMP_temperature;BMP_pressure;BME280_temperature;BME280_humidity;BME280_pressure;Samples;Min_cycle;Max_cycle;Signal;HPM_P1;HPM_P2
2021/11/03 00:01:49;;;;;;;10.07;4.43;;;;;;;7.99;100.00;92780.94;5055929;28;20588;-85
2021/11/03 00:04:16;;;;;;;5.82;3.60;;;;;;;7.87;100.00;92770.59;5051116;28;20053;-85
2021/11/03 00:06:45;;;;;;;12.73;4.50;;;;;;;7.97;100.00;92781.16;5053674;28;20037;-85
2021/11/03 00:09:12;;;;;;;6.85;3.40;;;;;;;7.95;100.00;92777.22;5052643;28;20072;-84
2021/11/03 00:11:41;;;;;;;9.00;4.43;;;;;;;7.97;100.00;92788.81;5053147;28;20053;-84
2021/11/03 00:14:08;;;;;;;7.90;3.63;;;;;;;7.96;100.00;92789.81;5054182;28;20049;-84
2021/11/03 00:16:35;;;;;;;8.65;4.15;;;;;;;7.97;100.00;92803.41;5050901;28;20059;-85
2021/11/03 00:19:02;;;;;;;8.15;4.60;;;;;;;7.84;100.00;92781.22;5047554;28;20056;-84
2021/11/03 00:21:29;;;;;;;7.68;4.57;;;;;;;7.96;100.00;92792.38;5049226;28;20823;-84
2021/11/03 00:23:56;;;;;;;9.68;4.95;;;;;;;7.82;100.00;92778.84;5045745;28;20056;-84
2021/11/03 00:26:23;;;;;;;7.68;4.55;;;;;;;7.71;100.00;92782.84;5047115;28;20506;-84
2021/11/03 00:28:51;;;;;;;9.18;5.05;;;;;;;7.84;100.00;92797.34;5045212;28;20048;-84
2021/11/03 00:31:18;;;;;;;10.00;4.35;;;;;;;7.66;100.00;92782.66;5045841;28;20114;-84
2021/11/03 00:33:45;;;;;;;9.60;4.97;;;;;;;7.78;100.00;92805.03;5044875;28;20048;-84
2021/11/03 00:36:12;;;;;;;11.00;5.40;;;;;;;7.66;100.00;92790.31;5043164;28;20070;-84
2021/11/03 00:38:39;;;;;;;10.43;5.68;;;;;;;7.80;100.00;92803.06;5041095;28;20064;-85
2021/11/03 00:41:06;;;;;;;10.93;5.45;;;;;;;7.61;100.00;92796.06;5040241;28;20041;-85
2021/11/03 00:43:34;;;;;;;14.20;6.72;;;;;;;7.81;100.00;92814.84;5039129;28;20087;-84
2021/11/03 00:46:02;;;;;;;13.15;5.20;;;;;;;7.52;100.00;92783.69;5037906;28;20059;-84
2021/11/03 00:48:29;;;;;;;9.10;4.70;;;;;;;7.76;100.00;92823.13;5038082;28;20115;-84
2021/11/03 00:50:57;;;;;;;10.15;5.07;;;;;;;7.70;100.00;92823.94;5038646;28;20049;-84
2021/11/03 00:53:23;;;;;;;7.00;4.38;;;;;;;7.58;100.00;92800.75;5040065;28;20383;-84
2021/11/03 00:55:50;;;;;;;10.57;4.18;;;;;;;7.56;100.00;92798.44;5038071;28;20049;-85
2021/11/03 00:58:18;;;;;;;6.93;3.90;;;;;;;7.60;100.00;92814.13;5038578;28;20053;-84
2021/11/03 01:00:45;;;;;;;6.53;3.53;;;;;;;7.60;100.00;92814.91;5039550;28;20047;-84
2021/11/03 01:03:13;;;;;;;6.82;4.05;;;;;;;7.70;100.00;92836.72;5038430;28;20061;-84
2021/11/03 01:05:40;;;;;;;6.32;3.42;;;;;;;7.68;100.00;92836.91;5038181;28;20049;-84
2021/11/03 01:08:07;;;;;;;7.13;3.97;;;;;;;7.61;100.00;92831.03;5049031;28;20045;-84
2021/11/03 01:10:35;;;;;;;8.85;4.45;;;;;;;7.66;100.00;92844.00;5048831;28;20056;-84
2021/11/03 01:13:02;;;;;;;8.85;5.00;;;;;;;7.65;100.00;92846.75;5049107;28;20051;-85
2021/11/03 01:15:29;;;;;;;9.32;4.70;;;;;;;7.60;100.00;92850.69;5049176;28;20048;-85
2021/11/03 01:17:56;;;;;;;9.50;4.90;;;;;;;7.54;100.00;92851.50;5048784;28;20506;-85
2021/11/03 01:20:26;;;;;;;8.65;4.45;;;;;;;7.51;100.00;92857.03;5048665;28;20067;-85
2021/11/03 01:22:53;;;;;;;8.88;4.85;;;;;;;7.31;100.00;92826.38;5048571;28;20591;-85
2021/11/03 01:25:20;;;;;;;12.95;6.30;;;;;;;7.44;100.00;92862.13;5048755;28;20053;-86
2021/11/03 01:27:47;;;;;;;9.95;5.85;;;;;;;6.93;100.00;92795.38;5049069;28;20053;-87
2021/11/03 01:30:17;;;;;;;13.02;5.45;;;;;;;7.43;100.00;92867.44;5049193;28;20052;-84
2021/11/03 01:32:43;;;;;;;12.00;4.88;;;;;;;6.71;100.00;92761.59;5048908;28;20056;-85
2021/11/03 01:35:11;;;;;;;7.88;4.35;;;;;;;7.31;100.00;92857.81;5048572;28;20500;-84
2021/11/03 01:37:39;;;;;;;9.80;4.80;;;;;;;7.29;100.00;92871.78;5049020;28;20114;-83
2021/11/03 01:40:10;;;;;;;7.15;4.28;;;;;;;7.21;100.00;92873.56;5048792;28;20460;-83
2021/11/03 01:42:37;;;;;;;9.82;5.85;;;;;;;7.04;100.00;92852.72;5048867;28;20098;-83
2021/11/03 01:45:04;;;;;;;16.70;8.45;;;;;;;6.95;100.00;92854.69;5048813;28;20445;-83
2021/11/03 01:47:47;;;;;;;34.58;16.73;;;;;;;7.00;100.00;92883.94;5048362;28;20052;-83
2021/11/03 01:50:24;;;;;;;32.33;14.07;;;;;;;6.99;100.00;92885.72;5048598;28;20098;-83
2021/11/03 01:52:57;;;;;;;28.83;13.55;;;;;;;6.99;100.00;92882.38;5048861;28;20053;-84
2021/11/03 01:55:27;;;;;;;24.23;12.82;;;;;;;6.87;100.00;92879.63;5048753;28;20510;-84
2021/11/03 01:58:01;;;;;;;36.78;18.65;;;;;;;6.60;100.00;92843.84;5051073;28;20049;-84
2021/11/03 02:00:32;;;;;;;35.22;18.90;;;;;;;6.73;100.00;92892.38;5052802;28;20053;-84
2021/11/03 02:03:04;;;;;;;34.42;17.00;;;;;;;6.60;100.00;92877.00;5052545;28;20498;-84
2021/11/03 02:05:31;;;;;;;29.77;17.17;;;;;;;6.55;100.00;92875.03;5052549;28;20068;-84
2021/11/03 02:08:01;;;;;;;30.48;15.50;;;;;;;6.38;100.00;92861.84;5052876;28;20779;-84
2021/11/03 02:10:28;;;;;;;24.20;13.82;;;;;;;6.38;100.00;92883.03;5052400;28;20041;-84
2021/11/03 02:12:56;;;;;;;21.35;13.93;;;;;;;5.61;100.00;92815.03;5052593;28;20052;-84
2021/11/03 02:15:23;;;;;;;49.85;29.38;;;;;;;5.72;100.00;92851.16;5052576;28;20049;-84
2021/11/03 02:17:50;;;;;;;46.10;26.73;;;;;;;5.95;100.00;92894.22;5052434;28;20045;-84
2021/11/03 02:20:20;;;;;;;33.42;20.05;;;;;;;5.86;100.00;92872.41;5052360;28;20053;-85
2021/11/03 02:22:58;;;;;;;47.72;26.83;;;;;;;5.80;100.00;92878.25;5049249;28;20053;-84
2021/11/03 02:25:37;;;;;;;34.05;21.17;;;;;;;5.94;100.00;92907.97;5050617;28;20079;-85
2021/11/03 02:28:06;;;;;;;28.23;17.33;;;;;;;5.69;100.00;92884.69;5052209;28;20045;-85
2021/11/03 02:30:34;;;;;;;17.60;10.98;;;;;;;5.64;100.00;92894.66;5052630;28;20061;-85
2021/11/03 02:33:04;;;;;;;14.23;9.15;;;;;;;5.25;100.00;92840.69;5052416;28;20053;-85
2021/11/03 02:35:30;;;;;;;22.67;17.35;;;;;;;5.66;100.00;92898.59;5051850;28;20044;-85
2021/11/03 02:37:59;;;;;;;27.67;18.42;;;;;;;5.27;100.00;92864.25;5051976;28;20243;-85
2021/11/03 02:40:48;;;;;;;26.38;17.23;;;;;;;5.44;100.00;92911.38;5051426;28;20080;-84
2021/11/03 02:43:21;;;;;;;23.10;13.93;;;;;;;5.43;100.00;92906.47;5051539;28;20056;-84
2021/11/03 02:45:53;;;;;;;22.17;17.45;;;;;;;5.03;100.00;92849.19;5051439;28;20539;-84
2021/11/03 02:48:21;;;;;;;29.70;24.00;;;;;;;5.20;100.00;92870.03;5051652;28;20533;-85
2021/11/03 02:51:10;;;;;;;27.45;20.17;;;;;;;5.22;100.00;92880.84;5051702;28;20079;-84
2021/11/03 02:53:41;;;;;;;21.35;16.35;;;;;;;5.47;100.00;92905.13;5051610;28;20532;-84
2021/11/03 02:56:10;;;;;;;19.45;14.70;;;;;;;5.34;100.00;92893.84;5051454;28;20052;-84
2021/11/03 02:58:37;;;;;;;29.02;18.48;;;;;;;5.18;100.00;92889.03;5051560;28;20408;-84
2021/11/03 03:01:18;;;;;;;28.17;15.30;;;;;;;5.45;100.00;92935.06;5051318;28;20569;-84
2021/11/03 03:03:46;;;;;;;37.92;20.67;;;;;;;5.43;100.00;92939.56;5051621;28;20045;-84
2021/11/03 03:06:19;;;;;;;34.63;19.45;;;;;;;5.18;100.00;92937.41;5050942;28;20078;-84
2021/11/03 03:08:46;;;;;;;30.15;20.02;;;;;;;4.23;100.00;92872.09;5051489;28;20425;-84
2021/11/03 03:11:15;;;;;;;41.88;24.52;;;;;;;4.30;100.00;92917.97;5051169;28;20045;-84
2021/11/03 03:13:43;;;;;;;55.38;31.98;;;;;;;4.31;100.00;92920.31;5051461;28;20059;-84
2021/11/03 03:16:09;;;;;;;142.48;69.88;;;;;;;4.41;100.00;92914.94;5050987;28;20057;-84
2021/11/03 03:18:36;;;;;;;90.63;42.13;;;;;;;4.52;100.00;92927.22;5051013;28;20045;-86
2021/11/03 03:21:04;;;;;;;38.33;20.35;;;;;;;4.42;100.00;92929.25;5051400;28;20049;-84
2021/11/03 03:23:31;;;;;;;78.50;40.97;;;;;;;4.14;100.00;92927.34;5051063;28;20045;-84
2021/11/03 03:26:00;;;;;;;35.15;19.10;;;;;;;3.96;100.00;92910.72;5050894;28;20045;-84
2021/11/03 03:28:28;;;;;;;28.83;15.57;;;;;;;4.06;100.00;92935.06;5051010;28;20175;-84
2021/11/03 03:30:55;;;;;;;41.47;24.27;;;;;;;3.53;100.00;92903.72;5051107;28;20049;-83
2021/11/03 03:33:22;;;;;;;34.88;18.63;;;;;;;3.56;100.00;92930.50;5050751;28;20051;-84
2021/11/03 03:35:49;;;;;;;38.40;18.75;;;;;;;3.63;100.00;92946.63;5051208;28;20516;-84
2021/11/03 03:38:16;;;;;;;35.20;19.42;;;;;;;3.08;100.00;92883.31;5050591;28;20490;-85
2021/11/03 03:40:44;;;;;;;38.22;20.77;;;;;;;3.35;100.00;92954.81;5050904;28;20053;-85
2021/11/03 03:43:11;;;;;;;62.22;34.45;;;;;;;3.35;100.00;92954.81;5050670;28;20053;-83
2021/11/03 03:45:39;;;;;;;45.40;25.00;;;;;;;3.52;100.00;92963.06;5050629;28;20055;-83
2021/11/03 03:48:06;;;;;;;44.75;23.40;;;;;;;3.43;100.00;92964.09;5050366;28;20122;-83
2021/11/03 03:50:33;;;;;;;38.67;21.80;;;;;;;3.16;100.00;92916.22;5050506;28;20139;-85
2021/11/03 03:53:00;;;;;;;40.33;23.80;;;;;;;3.67;100.00;92970.72;5050323;28;20048;-85
2021/11/03 03:55:28;;;;;;;40.95;23.35;;;;;;;3.64;100.00;92968.50;5050610;28;20045;-85
2021/11/03 03:57:55;;;;;;;54.35;25.88;;;;;;;2.80;100.00;92897.31;5050294;28;20041;-86
2021/11/03 04:00:22;;;;;;;42.97;24.95;;;;;;;2.86;100.00;92943.28;5050474;28;20045;-84
2021/11/03 04:02:52;;;;;;;51.72;27.55;;;;;;;2.74;100.00;92970.75;5051039;28;20466;-84
2021/11/03 04:05:21;;;;;;;59.00;27.80;;;;;;;2.52;100.00;92973.88;5050717;28;20056;-84
2021/11/03 04:07:48;;;;;;;56.78;29.27;;;;;;;2.49;100.00;92969.13;5050135;28;20526;-84
2021/11/03 04:10:17;;;;;;;62.15;32.75;;;;;;;2.61;100.00;92981.44;5050006;28;20510;-84
2021/11/03 04:12:44;;;;;;;63.10;34.15;;;;;;;2.75;100.00;92985.00;5050081;28;20053;-84
2021/11/03 04:15:13;;;;;;;65.22;34.95;;;;;;;2.64;100.00;92960.84;5049888;28;20496;-86
2021/11/03 04:17:39;;;;;;;90.03;42.88;;;;;;;2.12;100.00;92889.47;5049921;28;20052;-86
2021/11/03 04:20:10;;;;;;;125.20;64.90;;;;;;;2.09;100.00;92903.25;5049598;28;20051;-86
2021/11/03 04:22:37;;;;;;;83.38;44.85;;;;;;;2.43;100.00;92951.25;5049771;28;20494;-85
2021/11/03 04:25:06;;;;;;;73.57;37.35;;;;;;;2.65;100.00;92964.94;5049658;28;20057;-86
2021/11/03 04:27:33;;;;;;;60.78;31.27;;;;;;;2.57;100.00;92977.66;5049581;28;20539;-85
2021/11/03 04:30:00;;;;;;;81.07;37.17;;;;;;;2.65;100.00;92977.63;5049985;28;20075;-85
2021/11/03 04:32:27;;;;;;;54.40;32.17;;;;;;;2.79;100.00;92981.97;5049726;28;20056;-85
2021/11/03 04:34:53;;;;;;;55.60;32.95;;;;;;;3.01;100.00;92978.84;5049714;28;20091;-84
2021/11/03 04:37:22;;;;;;;64.30;31.95;;;;;;;2.94;100.00;92983.78;5049548;28;20472;-84
2021/11/03 04:39:49;;;;;;;49.20;26.77;;;;;;;2.39;100.00;92890.75;5049222;28;20487;-84
2021/11/03 04:42:15;;;;;;;49.20;26.33;;;;;;;3.14;100.00;92990.97;5049728;28;20049;-84
2021/11/03 04:44:42;;;;;;;46.45;23.05;;;;;;;2.61;100.00;92929.00;5049741;28;20486;-84
2021/11/03 04:47:09;;;;;;;44.40;24.58;;;;;;;2.42;100.00;92919.25;5049573;28;20795;-84
2021/11/03 04:49:36;;;;;;;50.53;26.63;;;;;;;2.88;100.00;92994.63;5049707;28;20053;-85
2021/11/03 04:52:04;;;;;;;50.35;25.55;;;;;;;2.63;100.00;92949.88;5049542;28;20045;-85
2021/11/03 04:54:32;;;;;;;46.42;25.00;;;;;;;3.05;100.00;92983.41;5049381;28;20107;-83
2021/11/03 04:56:59;;;;;;;43.20;23.48;;;;;;;3.13;100.00;92964.81;5049414;28;20053;-84
2021/11/03 04:59:26;;;;;;;40.20;23.38;;;;;;;3.37;100.00;92983.34;5049442;28;20072;-83
2021/11/03 05:01:53;;;;;;;45.10;23.20;;;;;;;3.53;100.00;92996.88;5049090;28;20490;-83
2021/11/03 05:04:20;;;;;;;44.05;24.90;;;;;;;3.72;100.00;93010.84;5049308;28;20565;-83
2021/11/03 05:06:48;;;;;;;40.75;22.48;;;;;;;3.81;100.00;93007.28;5049474;28;20457;-82
2021/11/03 05:09:16;;;;;;;43.53;23.17;;;;;;;3.69;100.00;92978.94;5049230;28;20131;-83
2021/11/03 05:11:45;;;;;;;37.28;21.23;;;;;;;3.80;100.00;92992.19;5050015;28;20456;-83
2021/11/03 05:14:12;;;;;;;33.80;18.73;;;;;;;3.97;100.00;93008.88;5049706;28;20056;-83
2021/11/03 05:16:39;;;;;;;29.58;16.05;;;;;;;3.94;100.00;93018.59;5048948;28;20041;-83
2021/11/03 05:19:06;;;;;;;33.70;18.13;;;;;;;3.93;100.00;93027.19;5049080;28;20045;-83
2021/11/03 05:21:37;;;;;;;28.25;14.80;;;;;;;4.08;100.00;93034.81;5049033;28;20041;-83
2021/11/03 05:24:05;;;;;;;28.98;15.77;;;;;;;3.78;100.00;92992.38;5047811;28;20140;-83
2021/11/03 05:26:31;;;;;;;31.75;15.05;;;;;;;3.72;100.00;93010.84;5049034;28;20057;-83
2021/11/03 05:29:02;;;;;;;45.70;24.80;;;;;;;3.79;100.00;93021.13;5048807;28;20172;-83
2021/11/03 05:31:29;;;;;;;43.22;23.75;;;;;;;3.67;100.00;93033.44;5048689;28;20064;-84
2021/11/03 05:33:56;;;;;;;35.75;18.00;;;;;;;3.58;100.00;93041.13;5052740;28;20048;-83
2021/11/03 05:36:26;;;;;;;44.63;21.35;;;;;;;3.11;100.00;93007.34;5053276;28;20049;-84
2021/11/03 05:38:53;;;;;;;44.40;21.77;;;;;;;2.97;100.00;93001.22;5052951;28;20049;-85
2021/11/03 05:41:20;;;;;;;42.70;22.02;;;;;;;3.31;100.00;93037.34;5052935;28;20049;-84
2021/11/03 05:43:47;;;;;;;39.60;20.15;;;;;;;3.46;100.00;93020.41;5052885;28;20147;-83
2021/11/03 05:46:18;;;;;;;41.42;21.95;;;;;;;3.78;100.00;93047.47;5052953;28;20094;-83
2021/11/03 05:48:47;;;;;;;53.97;26.13;;;;;;;3.51;100.00;93029.28;5053139;28;20390;-83
2021/11/03 05:51:14;;;;;;;53.90;26.05;;;;;;;3.52;100.00;93051.16;5052851;28;20045;-83
2021/11/03 05:53:42;;;;;;;61.92;27.00;;;;;;;3.47;100.00;93051.66;5053087;28;20045;-83
2021/11/03 05:56:10;;;;;;;58.35;29.30;;;;;;;3.23;100.00;93048.31;5052742;28;20049;-84
2021/11/03 05:58:37;;;;;;;56.55;30.45;;;;;;;3.34;100.00;93072.56;5052700;28;20056;-85
2021/11/03 06:01:05;;;;;;;55.70;29.45;;;;;;;3.21;100.00;93070.56;5052824;28;20053;-88
2021/11/03 06:03:34;;;;;;;101.78;53.03;;;;;;;2.98;100.00;93067.97;5052376;28;20063;-85
2021/11/03 06:06:01;;;;;;;58.78;32.60;;;;;;;3.07;100.00;93052.53;5053003;28;20048;-84
2021/11/03 06:08:28;;;;;;;62.08;27.73;;;;;;;2.84;100.00;93034.75;5052447;28;20052;-84
2021/11/03 06:10:57;;;;;;;56.22;29.33;;;;;;;3.10;100.00;93091.25;5052420;28;20143;-85
2021/11/03 06:13:24;;;;;;;89.30;36.95;;;;;;;3.30;100.00;93081.47;5052297;28;20053;-85
2021/11/03 06:15:51;;;;;;;83.00;43.13;;;;;;;3.36;100.00;93059.66;5052019;28;20111;-85
2021/11/03 06:18:18;;;;;;;88.93;39.92;;;;;;;3.71;100.00;93077.84;5052328;28;20041;-85
2021/11/03 06:20:46;;;;;;;68.32;34.78;;;;;;;3.53;100.00;93051.00;5047663;28;20531;-85
2021/11/03 06:23:13;;;;;;;62.35;32.75;;;;;;;4.00;100.00;93100.03;5050536;28;20049;-84
2021/11/03 06:25:40;;;;;;;61.13;30.98;;;;;;;3.82;100.00;93069.81;5052301;28;20414;-85
2021/11/03 06:28:13;;;;;;;75.28;34.70;;;;;;;3.13;100.00;92947.03;5052021;28;20056;-85
2021/11/03 06:30:40;;;;;;;67.97;36.30;;;;;;;3.36;100.00;92953.84;5053316;28;20044;-85
2021/11/03 06:33:08;;;;;;;62.88;35.85;;;;;;;3.94;100.00;93026.97;5052837;28;20061;-85
2021/11/03 06:35:37;;;;;;;75.00;39.80;;;;;;;4.52;100.00;93100.19;5052835;28;20049;-84
2021/11/03 06:38:07;;;;;;;82.88;41.78;;;;;;;4.17;100.00;93043.16;5052387;28;20049;-85
2021/11/03 06:40:35;;;;;;;80.90;45.42;;;;;;;3.94;100.00;92983.78;5052660;28;20056;-85
2021/11/03 06:43:03;;;;;;;87.15;43.80;;;;;;;4.18;100.00;92996.41;5052162;28;20089;-85
2021/11/03 06:45:31;;;;;;;91.07;43.50;;;;;;;4.21;100.00;93009.56;5051531;28;20049;-85
2021/11/03 06:47:59;;;;;;;84.85;42.97;;;;;;;4.80;100.00;93075.84;5051731;28;20052;-84
2021/11/03 06:50:31;;;;;;;91.63;45.15;;;;;;;4.95;100.00;93086.81;5051668;28;20080;-85
2021/11/03 06:53:02;;;;;;;83.30;38.80;;;;;;;5.08;100.00;93098.91;5051759;28;20071;-85
2021/11/03 06:55:30;;;;;;;92.00;41.85;;;;;;;4.31;100.00;93000.91;5051296;28;20110;-85
2021/11/03 06:57:58;;;;;;;81.20;40.55;;;;;;;4.58;100.00;93035.06;5051618;28;20118;-84
2021/11/03 07:00:31;;;;;;;90.80;42.55;;;;;;;5.32;100.00;93114.06;5051500;28;20059;-85
2021/11/03 07:03:00;;;;;;;86.28;42.10;;;;;;;5.35;100.00;93088.22;5047619;28;20047;-85
2021/11/03 07:05:27;;;;;;;79.82;40.75;;;;;;;5.56;100.00;93105.28;5050571;28;20073;-85
2021/11/03 07:07:55;;;;;;;85.15;42.13;;;;;;;5.48;100.00;93085.03;5051286;28;20048;-85
2021/11/03 07:10:26;;;;;;;105.30;49.47;;;;;;;5.34;100.00;93056.09;5051596;28;20055;-85
2021/11/03 07:12:54;;;;;;;111.53;50.90;;;;;;;5.05;100.00;93005.06;5050968;28;20401;-85
2021/11/03 07:15:22;;;;;;;98.85;47.45;;;;;;;5.84;100.00;93091.81;5051914;28;20063;-85
2021/11/03 07:17:49;;;;;;;110.93;53.55;;;;;;;5.91;100.00;93089.31;5052037;28;20084;-85
2021/11/03 07:20:17;;;;;;;104.03;48.65;;;;;;;5.77;100.00;93083.31;5051645;28;20052;-85
2021/11/03 07:22:45;;;;;;;89.68;43.55;;;;;;;6.14;100.00;93112.09;5051514;28;20544;-85
2021/11/03 07:25:14;;;;;;;63.53;31.42;;;;;;;5.96;100.00;93084.47;5051277;28;20052;-84
2021/11/03 07:27:41;;;;;;;54.85;26.92;;;;;;;6.27;100.00;93136.13;5051603;28;20399;-85
2021/11/03 07:30:10;;;;;;;71.25;30.65;;;;;;;5.70;100.00;93121.50;5050952;28;20098;-85
2021/11/03 07:32:37;;;;;;;120.20;55.15;;;;;;;5.53;100.00;93143.06;5050798;28;20053;-85
2021/11/03 07:35:04;;;;;;;85.50;39.97;;;;;;;5.35;100.00;93159.53;5050413;28;20490;-84
2021/11/03 07:37:31;;;;;;;74.20;33.85;;;;;;;5.30;100.00;93139.72;5031555;28;20453;-85
2021/11/03 07:39:58;;;;;;;73.95;34.72;;;;;;;5.38;100.00;93154.09;5030804;28;20079;-85
2021/11/03 07:42:25;;;;;;;78.55;32.67;;;;;;;5.51;100.00;93148.34;5030612;28;20055;-84
2021/11/03 07:44:52;;;;;;;63.97;33.97;;;;;;;5.55;100.00;93143.69;5030593;28;20061;-83
2021/11/03 07:47:21;;;;;;;71.82;32.72;;;;;;;5.71;100.00;93163.88;5030481;28;20057;-83
2021/11/03 07:49:47;;;;;;;70.05;34.20;;;;;;;5.48;100.00;93146.16;5030796;28;20049;-84
2021/11/03 07:52:15;;;;;;;79.93;37.58;;;;;;;5.41;100.00;93168.25;5030520;28;20049;-85
2021/11/03 07:54:42;;;;;;;78.13;34.53;;;;;;;5.03;100.00;93126.66;5029697;28;20065;-85
2021/11/03 07:57:09;;;;;;;78.82;35.17;;;;;;;5.52;100.00;93160.13;5030413;28;20897;-85
2021/11/03 07:59:37;;;;;;;123.63;57.67;;;;;;;5.67;100.00;93160.09;5030352;28;20097;-85
2021/11/03 08:02:04;;;;;;;84.28;40.80;;;;;;;6.03;100.00;93148.31;5030137;28;20057;-84
2021/11/03 08:04:32;;;;;;;57.60;29.00;;;;;;;6.13;100.00;93107.97;5030010;28;20057;-84
2021/11/03 08:06:59;;;;;;;42.15;21.42;;;;;;;6.21;100.00;93119.00;5030586;28;20128;-85
2021/11/03 08:09:26;;;;;;;46.63;24.20;;;;;;;6.51;100.00;93131.56;5030613;28;20053;-86
2021/11/03 08:11:54;;;;;;;42.70;20.60;;;;;;;6.46;100.00;93070.91;5030476;28;20045;-86
2021/11/03 08:14:22;;;;;;;34.00;21.05;;;;;;;7.11;100.00;93118.34;5030505;28;20068;-85
2021/11/03 08:16:54;;;;;;;36.47;19.52;;;;;;;7.05;100.00;93068.03;5030063;28;20057;-85
2021/11/03 08:19:25;;;;;;;36.42;19.75;;;;;;;7.21;100.00;93061.78;5030515;28;20057;-85
2021/11/03 08:21:53;;;;;;;35.90;19.52;;;;;;;7.88;100.00;93122.50;5029861;28;20053;-86
2021/11/03 08:24:20;;;;;;;33.33;19.63;;;;;;;7.40;100.00;93078.16;5029934;28;20046;-85
2021/11/03 08:26:51;;;;;;;40.28;19.73;;;;;;;7.41;100.00;93053.41;5030190;28;20057;-85
2021/11/03 08:29:18;;;;;;;38.47;19.25;;;;;;;8.03;100.00;93112.09;5030172;28;20132;-84
2021/11/03 08:31:46;;;;;;;37.20;18.75;;;;;;;8.13;100.00;93081.00;5030331;28;20145;-85
2021/11/03 08:34:23;;;;;;;43.08;21.90;;;;;;;8.23;100.00;93108.72;5029496;28;20065;-85
2021/11/03 08:36:51;;;;;;;44.60;21.13;;;;;;;8.54;100.00;93110.72;5029564;28;20063;-86
2021/11/03 08:39:19;;;;;;;37.90;21.13;;;;;;;8.73;100.00;93118.56;5029784;28;20107;-86
2021/11/03 08:41:46;;;;;;;34.65;17.38;;;;;;;8.67;100.00;93098.88;5029418;28;20057;-85
2021/11/03 08:44:15;;;;;;;29.65;16.63;;;;;;;8.99;100.00;93093.09;5029572;28;20045;-85
2021/11/03 08:46:42;;;;;;;29.85;18.42;;;;;;;8.71;100.00;93015.56;5028947;28;20506;-85
2021/11/03 08:49:09;;;;;;;33.60;17.17;;;;;;;9.24;100.00;93067.56;5029351;28;20063;-86
2021/11/03 08:51:39;;;;;;;31.40;16.08;;;;;;;9.86;100.00;93120.09;5029796;28;20045;-86
2021/11/03 08:54:07;;;;;;;37.00;19.02;;;;;;;9.40;100.00;93032.97;5029247;28;20045;-86
2021/11/03 08:56:37;;;;;;;34.97;19.13;;;;;;;10.13;100.00;93107.06;5029458;28;20052;-86
2021/11/03 08:59:05;;;;;;;32.38;17.60;;;;;;;10.42;100.00;93102.31;5030139;28;20082;-86
2021/11/03 09:01:32;;;;;;;39.58;21.02;;;;;;;10.54;100.00;93085.25;5029352;28;20046;-86
2021/11/03 09:03:59;;;;;;;41.33;21.75;;;;;;;11.04;100.00;93127.25;5029907;28;20559;-86
2021/11/03 09:06:26;;;;;;;38.08;20.33;;;;;;;10.95;100.00;93077.13;5030090;28;20053;-86
2021/11/03 09:08:53;;;;;;;37.97;18.75;;;;;;;10.80;100.00;93067.97;5029767;28;20052;-85
2021/11/03 09:11:21;;;;;;;37.60;18.52;;;;;;;10.92;100.00;93101.47;5040567;28;20068;-85
2021/11/03 09:13:50;;;;;;;30.83;17.15;;;;;;;11.08;100.00;93132.75;5049953;28;20048;-85
2021/11/03 09:16:17;;;;;;;27.00;15.57;;;;;;;10.91;100.00;93107.59;5049789;28;20053;-86
2021/11/03 09:18:45;;;;;;;29.30;15.73;;;;;;;11.37;100.00;93125.28;5049334;28;20496;-85
2021/11/03 09:21:11;;;;;;;29.60;14.68;;;;;;;11.21;100.00;93075.25;5049690;28;20045;-86
2021/11/03 09:23:39;;;;;;;24.58;15.43;;;;;;;11.69;100.00;93108.88;5048794;28;20049;-86
2021/11/03 09:26:06;;;;;;;19.63;11.52;;;;;;;11.74;100.00;93119.28;5048966;28;20045;-85
2021/11/03 09:28:35;;;;;;;21.52;11.48;;;;;;;11.39;100.00;93043.56;5048874;28;20049;-86
2021/11/03 09:31:06;;;;;;;23.25;11.93;;;;;;;11.45;100.00;93041.91;5048649;28;20041;-86
2021/11/03 09:33:35;;;;;;;22.70;12.82;;;;;;;11.82;100.00;93079.59;5048615;28;20049;-85
2021/11/03 09:36:03;;;;;;;26.15;15.20;;;;;;;12.14;100.00;93093.00;5048695;28;20049;-86
2021/11/03 09:38:32;;;;;;;23.65;13.35;;;;;;;12.36;100.00;93091.69;5048639;28;20635;-86
2021/11/03 09:41:01;;;;;;;22.45;12.30;;;;;;;12.22;100.00;93091.88;5048579;28;20060;-85
2021/11/03 09:43:33;;;;;;;25.52;13.65;;;;;;;11.94;100.00;93051.31;5049030;28;20053;-85
2021/11/03 09:46:05;;;;;;;28.90;15.10;;;;;;;12.07;100.00;93076.09;5028900;28;20050;-85
2021/11/03 09:48:35;;;;;;;28.70;15.57;;;;;;;12.03;100.00;93062.84;5043015;28;20051;-86
2021/11/03 09:51:13;;;;;;;28.13;15.10;;;;;;;12.23;100.00;93067.69;5048710;28;20612;-86
2021/11/03 09:53:45;;;;;;;28.92;15.02;;;;;;;12.33;100.00;93062.00;5048943;28;20421;-86
2021/11/03 09:56:15;;;;;;;24.88;15.15;;;;;;;12.14;100.00;92984.84;5048428;28;20501;-86
2021/11/03 09:58:57;;;;;;;25.38;13.70;;;;;;;13.07;100.00;93060.69;5048841;28;20053;-86
2021/11/03 10:01:34;;;;;;;27.30;14.57;;;;;;;12.94;100.00;93004.22;5048809;28;20056;-86
2021/11/03 10:04:18;;;;;;;23.88;13.63;;;;;;;13.07;100.00;93019.44;5048602;28;20037;-86
2021/11/03 10:06:54;;;;;;;21.23;13.18;;;;;;;13.62;100.00;93063.00;5048728;28;20053;-86
2021/11/03 10:09:21;;;;;;;23.75;12.63;;;;;;;13.64;100.00;93022.25;5048767;28;20045;-86
2021/11/03 10:11:52;;;;;;;24.08;12.65;;;;;;;13.98;100.00;93055.81;5048737;28;20068;-86
2021/11/03 10:14:19;;;;;;;21.58;12.73;;;;;;;13.95;100.00;93012.41;5048402;28;20064;-86
2021/11/03 10:16:50;;;;;;;23.08;12.65;;;;;;;14.56;100.00;93058.22;5048735;28;20053;-86
2021/11/03 10:19:30;;;;;;;20.95;11.52;;;;;;;14.48;100.00;93017.28;5050951;28;20052;-86
2021/11/03 10:21:59;;;;;;;21.67;10.80;;;;;;;15.00;99.39;93045.59;5052377;28;20052;-86
2021/11/03 10:24:37;;;;;;;24.88;11.15;;;;;;;15.33;99.65;93060.19;5052476;28;20052;-86
2021/11/03 10:27:18;;;;;;;24.88;11.85;;;;;;;15.12;97.62;93004.06;5052032;28;20103;-86
2021/11/03 10:29:48;;;;;;;25.67;11.00;;;;;;;15.69;94.75;93062.38;5052360;28;20049;-88
2021/11/03 10:32:33;;;;;;;20.70;10.05;;;;;;;15.58;93.64;93030.44;5052444;28;20045;-87
2021/11/03 10:35:22;;;;;;;9.13;3.92;;;;;;;15.93;87.11;93045.78;5051797;28;20099;-88
2021/11/03 10:37:57;;;;;;;9.25;3.75;;;;;;;16.09;83.17;93050.03;5051574;28;20052;-88
2021/11/03 10:40:28;;;;;;;9.50;2.30;;;;;;;15.88;83.23;93015.41;5051832;28;20041;-86
2021/11/03 10:43:04;;;;;;;8.93;3.03;;;;;;;16.07;82.36;93031.38;5051642;28;20053;-86
2021/11/03 10:45:35;;;;;;;5.68;3.03;;;;;;;16.25;81.85;93055.34;5051824;28;20053;-86
2021/11/03 10:48:22;;;;;;;8.30;4.00;;;;;;;16.27;82.31;93043.72;5046423;28;20057;-85
2021/11/03 10:51:02;;;;;;;5.57;2.38;;;;;;;16.21;81.78;93047.28;5032146;28;20050;-85
2021/11/03 10:53:31;;;;;;;5.35;2.05;;;;;;;16.23;81.29;93065.97;5032436;28;20573;-85
2021/11/03 10:56:04;;;;;;;8.25;2.53;;;;;;;16.12;82.41;93057.31;5041257;28;20121;-84
2021/11/03 10:58:33;;;;;;;5.80;2.13;;;;;;;16.05;82.51;93043.78;5040802;28;20091;-85
2021/11/03 11:01:07;;;;;;;6.65;2.80;;;;;;;15.79;84.05;93009.91;5040488;28;20403;-86
2021/11/03 11:03:40;;;;;;;15.50;4.30;;;;;;;15.99;84.91;93052.56;5040821;28;20084;-86
2021/11/03 11:06:19;;;;;;;9.20;3.83;;;;;;;16.05;85.71;93066.34;5034552;28;20049;-87
2021/11/03 11:08:56;;;;;;;7.32;3.38;;;;;;;15.92;86.41;93050.13;5031396;28;20052;-85
2021/11/03 11:11:26;;;;;;;7.22;3.90;;;;;;;15.97;85.71;93055.38;5031677;28;20045;-86
2021/11/03 11:14:00;;;;;;;11.07;3.88;;;;;;;15.82;87.16;93016.38;5031268;28;20494;-85
2021/11/03 11:16:40;;;;;;;7.75;3.20;;;;;;;15.92;87.13;93042.34;5031393;28;20054;-85
2021/11/03 11:19:22;;;;;;;10.68;3.45;;;;;;;15.86;86.32;93033.78;5041167;28;20037;-83
2021/11/03 11:21:54;;;;;;;16.85;5.03;;;;;;;15.83;86.82;93023.13;5056977;28;20062;-84
2021/11/03 11:24:28;;;;;;;10.27;5.38;;;;;;;15.82;85.90;92998.25;5056719;28;20536;-84
2021/11/03 11:27:21;;;;;;;9.50;4.75;;;;;;;15.72;86.08;93002.34;5056876;28;20049;-84
2021/11/03 11:29:55;;;;;;;6.70;3.20;;;;;;;15.59;85.56;92979.41;5056058;28;20045;-85